createdAt,value
2017-10-15T00:01:45.398Z,46.70
2017-10-15T00:04:12.222Z,45.00
2017-10-15T00:06:39.043Z,43.80
2017-10-15T00:09:05.858Z,44.00
2017-10-15T00:11:32.666Z,42.40
2017-10-15T00:13:59.495Z,45.50
2017-10-15T00:16:26.323Z,42.60
2017-10-15T00:18:53.458Z,44.93
2017-10-15T00:21:20.308Z,41.83
2017-10-15T00:23:47.449Z,40.20
2017-10-15T00:26:14.296Z,43.77
2017-10-15T00:28:41.115Z,44.27
2017-10-15T00:31:07.898Z,44.53
2017-10-15T00:33:35.132Z,43.20
2017-10-15T00:36:02.279Z,41.77
2017-10-15T00:38:29.432Z,43.40
2017-10-15T00:40:56.474Z,42.47
2017-10-15T00:43:23.328Z,43.63
2017-10-15T00:45:50.144Z,44.00
2017-10-15T00:48:17.245Z,42.63
2017-10-15T00:50:44.367Z,42.87
2017-10-15T00:53:11.179Z,44.37
2017-10-15T00:55:38.006Z,42.87
2017-10-15T00:58:04.840Z,44.77
2017-10-15T01:00:31.675Z,44.17
2017-10-15T01:02:58.778Z,44.43
2017-10-15T01:05:25.932Z,42.37
2017-10-15T01:07:52.990Z,43.50
2017-10-15T01:10:19.839Z,43.20
2017-10-15T01:12:46.684Z,44.20
2017-10-15T01:15:13.817Z,44.50
2017-10-15T01:17:40.631Z,41.90
2017-10-15T01:20:07.461Z,42.93
2017-10-15T01:22:34.260Z,45.10
2017-10-15T01:25:01.395Z,44.33
2017-10-15T01:27:28.239Z,45.20
2017-10-15T01:29:55.073Z,47.10
2017-10-15T01:32:21.902Z,45.20
2017-10-15T01:34:48.968Z,47.80
2017-10-15T01:37:15.831Z,47.80
2017-10-15T01:39:42.699Z,49.83
2017-10-15T01:42:11.402Z,49.43
2017-10-15T01:44:38.198Z,52.17
2017-10-15T01:47:05.334Z,50.57
2017-10-15T01:49:32.491Z,51.20
2017-10-15T01:51:59.639Z,54.70
2017-10-15T01:54:26.492Z,48.80
2017-10-15T01:56:53.627Z,49.13
2017-10-15T01:59:20.471Z,59.43
2017-10-15T02:01:47.328Z,62.80
2017-10-15T02:04:14.156Z,54.37
2017-10-15T02:06:40.976Z,49.20
2017-10-15T02:09:07.822Z,55.23
2017-10-15T02:11:34.660Z,55.53
2017-10-15T02:14:01.471Z,54.77
2017-10-15T02:16:28.582Z,57.13
2017-10-15T02:18:55.627Z,56.93
2017-10-15T02:21:22.776Z,53.17
2017-10-15T02:23:49.629Z,52.60
2017-10-15T02:26:16.443Z,53.70
2017-10-15T02:28:43.509Z,54.37
2017-10-15T02:31:10.559Z,50.17
2017-10-15T02:33:37.612Z,58.30
2017-10-15T02:36:04.405Z,54.23
2017-10-15T02:38:31.237Z,59.47
2017-10-15T02:40:58.347Z,51.63
2017-10-15T02:43:25.148Z,54.80
2017-10-15T02:45:52.230Z,60.63
2017-10-15T02:48:19.060Z,55.13
2017-10-15T02:50:46.127Z,62.30
2017-10-15T02:53:13.282Z,61.07
2017-10-15T02:55:40.321Z,54.80
2017-10-15T02:58:07.167Z,53.80
2017-10-15T03:00:34.013Z,58.63
2017-10-15T03:03:01.158Z,53.90
2017-10-15T03:05:27.950Z,56.63
2017-10-15T03:07:54.774Z,59.97
2017-10-15T03:10:21.596Z,55.37
2017-10-15T03:12:48.747Z,60.47
2017-10-15T03:15:15.892Z,62.03
2017-10-15T03:17:42.678Z,59.00
2017-10-15T03:20:09.470Z,58.63
2017-10-15T03:22:36.522Z,54.70
2017-10-15T03:25:03.566Z,59.03
2017-10-15T03:27:30.386Z,89.10
2017-10-15T03:29:57.668Z,60.90
2017-10-15T03:32:24.465Z,55.90
2017-10-15T03:34:51.555Z,62.80
2017-10-15T03:37:18.707Z,65.70
2017-10-15T03:39:45.497Z,57.30
2017-10-15T03:42:12.347Z,59.70
2017-10-15T03:44:39.439Z,56.67
2017-10-15T03:47:06.238Z,65.67
2017-10-15T03:49:33.083Z,61.60
2017-10-15T03:51:59.931Z,80.50
2017-10-15T03:54:26.751Z,75.23
2017-10-15T03:56:53.538Z,58.27
2017-10-15T03:59:20.603Z,56.23
2017-10-15T04:01:47.642Z,70.07
2017-10-15T04:04:14.698Z,71.13
2017-10-15T04:06:41.526Z,54.30
2017-10-15T04:09:08.335Z,54.60
2017-10-15T04:11:35.307Z,89.80
2017-10-15T04:14:02.374Z,74.37
2017-10-15T04:16:29.531Z,58.87
2017-10-15T04:18:56.355Z,101.00
2017-10-15T04:21:23.521Z,58.67
2017-10-15T04:23:50.330Z,62.83
2017-10-15T04:26:17.159Z,83.30
2017-10-15T04:28:43.983Z,103.20
2017-10-15T04:31:10.810Z,108.93
2017-10-15T04:33:37.642Z,64.43
2017-10-15T04:36:04.466Z,56.60
2017-10-15T04:38:31.287Z,94.27
2017-10-15T04:40:58.114Z,102.73
2017-10-15T04:43:25.191Z,57.40
2017-10-15T04:45:52.254Z,65.60
2017-10-15T04:48:19.412Z,58.70
2017-10-15T04:50:46.493Z,67.30
2017-10-15T04:53:13.275Z,65.20
2017-10-15T04:55:40.078Z,75.67
2017-10-15T04:58:07.185Z,70.13
2017-10-15T05:00:33.986Z,75.53
2017-10-15T05:03:00.773Z,75.73
2017-10-15T05:05:27.614Z,69.93
2017-10-15T05:07:54.444Z,98.47
2017-10-15T05:10:21.265Z,63.47
2017-10-15T05:12:48.121Z,73.20
2017-10-15T05:15:15.143Z,61.07
2017-10-15T05:17:41.942Z,100.00
2017-10-15T05:20:08.796Z,75.60
2017-10-15T05:22:35.931Z,103.93
2017-10-15T05:25:02.742Z,84.80
2017-10-15T05:27:29.561Z,80.27
2017-10-15T05:29:56.680Z,76.53
2017-10-15T05:32:23.499Z,80.20
2017-10-15T05:34:50.310Z,62.83
2017-10-15T05:37:17.106Z,72.77
2017-10-15T05:39:43.926Z,62.87
2017-10-15T05:42:10.779Z,79.70
2017-10-15T05:44:37.601Z,63.93
2017-10-15T05:47:04.405Z,82.17
2017-10-15T05:49:31.443Z,57.50
2017-10-15T05:51:58.282Z,61.33
2017-10-15T05:54:25.086Z,71.20
2017-10-15T05:56:51.914Z,52.80
2017-10-15T05:59:18.721Z,78.73
2017-10-15T06:01:45.497Z,63.67
2017-10-15T06:04:12.596Z,64.70
2017-10-15T06:06:39.414Z,60.80
2017-10-15T06:09:06.250Z,76.40
2017-10-15T06:11:33.105Z,68.20
2017-10-15T06:14:00.149Z,48.87
2017-10-15T06:16:26.987Z,55.90
2017-10-15T06:18:53.835Z,53.70
2017-10-15T06:21:20.640Z,70.73
2017-10-15T06:23:47.723Z,71.67
2017-10-15T06:26:15.688Z,56.67
2017-10-15T06:28:43.058Z,60.63
2017-10-15T06:31:11.036Z,60.40
2017-10-15T06:33:40.618Z,59.33
2017-10-15T06:36:08.258Z,49.83
2017-10-15T06:38:36.348Z,48.07
2017-10-15T06:41:03.399Z,57.10
2017-10-15T06:43:30.568Z,48.13
2017-10-15T06:45:57.380Z,51.17
2017-10-15T06:48:24.323Z,50.17
2017-10-15T06:50:51.134Z,47.17
2017-10-15T06:53:17.969Z,50.73
2017-10-15T06:55:44.976Z,48.30
2017-10-15T06:58:13.249Z,52.80
2017-10-15T07:00:40.079Z,47.63
2017-10-15T07:03:07.711Z,47.30
2017-10-15T07:05:34.550Z,45.27
2017-10-15T07:08:01.380Z,51.13
2017-10-15T07:10:28.260Z,47.30
2017-10-15T07:12:55.073Z,47.43
2017-10-15T07:15:21.871Z,53.67
2017-10-15T07:17:48.923Z,44.97
2017-10-15T07:20:15.769Z,50.93
2017-10-15T07:22:42.601Z,51.40
2017-10-15T07:25:09.414Z,46.47
2017-10-15T07:27:36.503Z,49.03
2017-10-15T07:30:03.548Z,45.03
2017-10-15T07:32:30.382Z,47.60
2017-10-15T07:34:57.449Z,51.70
2017-10-15T07:37:24.238Z,49.37
2017-10-15T07:39:51.325Z,50.87
2017-10-15T07:42:18.175Z,50.80
2017-10-15T07:44:44.998Z,59.60
2017-10-15T07:47:11.846Z,48.57
2017-10-15T07:49:38.659Z,47.97
2017-10-15T07:52:05.751Z,48.77
2017-10-15T07:54:32.568Z,54.50
2017-10-15T07:56:59.363Z,49.53
2017-10-15T07:59:26.167Z,47.50
2017-10-15T08:01:53.015Z,51.57
2017-10-15T08:04:20.071Z,37.60
2017-10-15T08:06:46.883Z,39.80
2017-10-15T08:09:13.958Z,44.87
2017-10-15T08:11:40.746Z,35.03
2017-10-15T08:14:07.548Z,45.87
2017-10-15T08:16:34.363Z,40.07
2017-10-15T08:19:01.155Z,48.80
2017-10-15T08:21:28.279Z,51.40
2017-10-15T08:23:55.094Z,49.27
2017-10-15T08:26:22.274Z,47.90
2017-10-15T08:28:49.107Z,47.90
2017-10-15T08:31:15.984Z,47.23
2017-10-15T08:33:42.810Z,47.90
2017-10-15T08:36:09.598Z,48.87
2017-10-15T08:38:36.411Z,68.20
2017-10-15T08:41:03.216Z,50.30
2017-10-15T08:43:30.002Z,47.07
2017-10-15T08:45:57.113Z,43.93
2017-10-15T08:48:23.914Z,44.73
2017-10-15T08:50:50.698Z,40.83
2017-10-15T08:53:17.554Z,43.70
2017-10-15T08:55:44.372Z,39.50
2017-10-15T08:58:11.179Z,45.50
2017-10-15T09:00:38.281Z,37.23
2017-10-15T09:03:05.427Z,37.70
2017-10-15T09:05:32.475Z,35.03
2017-10-15T09:07:59.630Z,36.93
2017-10-15T09:10:26.459Z,32.87
2017-10-15T09:12:53.520Z,33.47
2017-10-15T09:15:20.327Z,34.33
2017-10-15T09:17:48.086Z,28.17
2017-10-15T09:20:14.879Z,29.97
2017-10-15T09:22:41.690Z,25.70
2017-10-15T09:25:08.522Z,24.60
2017-10-15T09:27:39.078Z,24.53
2017-10-15T09:30:06.230Z,26.50
2017-10-15T09:32:33.030Z,20.77
2017-10-15T09:34:59.818Z,21.60
2017-10-15T09:37:26.962Z,21.97
2017-10-15T09:39:54.120Z,20.60
2017-10-15T09:42:20.936Z,16.20
2017-10-15T09:44:47.776Z,15.67
2017-10-15T09:47:14.596Z,15.80
2017-10-15T09:49:41.697Z,19.50
2017-10-15T09:52:08.746Z,17.47
2017-10-15T09:54:35.522Z,18.00
2017-10-15T09:57:02.343Z,15.73
2017-10-15T09:59:29.184Z,15.40
2017-10-15T10:01:56.015Z,15.53
2017-10-15T10:04:22.806Z,13.40
2017-10-15T10:06:49.902Z,13.00
2017-10-15T10:09:16.720Z,12.43
2017-10-15T10:11:43.510Z,10.60
2017-10-15T10:14:10.309Z,11.00
2017-10-15T10:16:37.144Z,10.20
2017-10-15T10:19:03.928Z,10.20
2017-10-15T10:21:30.770Z,10.10
2017-10-15T10:23:57.558Z,10.20
2017-10-15T10:26:24.383Z,9.83
2017-10-15T10:28:51.224Z,11.20
2017-10-15T10:31:18.014Z,11.30
2017-10-15T10:33:45.589Z,10.80
2017-10-15T10:36:12.734Z,13.50
2017-10-15T10:38:39.552Z,13.50
2017-10-15T10:41:06.595Z,11.93
2017-10-15T10:43:33.673Z,11.20
2017-10-15T10:46:00.835Z,15.07
2017-10-15T10:48:27.878Z,15.97
2017-10-15T10:50:54.683Z,18.23
2017-10-15T10:53:21.482Z,15.97
2017-10-15T10:55:48.274Z,20.50
2017-10-15T10:58:15.086Z,19.03
2017-10-15T11:00:41.915Z,21.43
2017-10-15T11:03:08.739Z,19.27
2017-10-15T11:05:35.879Z,21.40
2017-10-15T11:08:03.033Z,20.83
2017-10-15T11:10:29.843Z,22.40
2017-10-15T11:12:56.656Z,20.10
2017-10-15T11:15:23.483Z,20.53
2017-10-15T11:17:50.378Z,20.97
2017-10-15T11:20:17.220Z,19.40
2017-10-15T11:22:44.001Z,23.92
2017-10-15T11:25:11.030Z,23.70
2017-10-15T11:27:37.893Z,20.63
2017-10-15T11:30:05.034Z,19.20
2017-10-15T11:32:31.864Z,21.42
2017-10-15T11:34:58.671Z,22.55
2017-10-15T11:37:25.495Z,22.75
2017-10-15T11:39:52.294Z,21.42
2017-10-15T11:42:19.142Z,23.85
2017-10-15T11:44:45.968Z,19.30
2017-10-15T11:47:12.791Z,21.07
2017-10-15T11:49:39.640Z,25.33
2017-10-15T11:52:06.654Z,21.27
2017-10-15T11:54:33.774Z,18.95
2017-10-15T11:57:00.923Z,19.52
2017-10-15T11:59:27.733Z,20.63
2017-10-15T12:01:54.522Z,21.85
2017-10-15T12:04:21.342Z,20.50
2017-10-15T12:06:48.162Z,19.65
2017-10-15T12:09:15.236Z,21.92
2017-10-15T12:11:42.382Z,20.67
2017-10-15T12:14:09.429Z,25.60
2017-10-15T12:16:36.255Z,21.80
2017-10-15T12:19:03.328Z,17.48
2017-10-15T12:21:30.142Z,20.48
2017-10-15T12:23:57.214Z,18.62
2017-10-15T12:26:24.035Z,19.30
2017-10-15T12:28:51.102Z,19.67
2017-10-15T12:31:17.898Z,18.20
2017-10-15T12:33:44.996Z,19.45
2017-10-15T12:36:11.816Z,20.33
2017-10-15T12:38:38.887Z,19.08
2017-10-15T12:41:05.942Z,21.75
2017-10-15T12:43:33.475Z,18.55
2017-10-15T12:46:00.550Z,18.67
2017-10-15T12:48:27.358Z,18.70
2017-10-15T12:50:54.142Z,18.75
2017-10-15T12:53:20.938Z,15.43
2017-10-15T12:55:48.014Z,14.13
2017-10-15T12:58:14.807Z,14.32
2017-10-15T13:00:41.628Z,14.98
2017-10-15T13:03:08.755Z,9.97
2017-10-15T13:05:35.907Z,13.87
2017-10-15T13:08:02.954Z,13.80
2017-10-15T13:10:30.107Z,12.50
2017-10-15T13:12:57.269Z,10.87
2017-10-15T13:15:24.071Z,11.23
2017-10-15T13:17:50.878Z,12.33
2017-10-15T13:20:17.662Z,8.53
2017-10-15T13:22:44.445Z,14.83
2017-10-15T13:25:11.269Z,12.07
2017-10-15T13:27:38.092Z,11.93
2017-10-15T13:30:04.869Z,9.63
2017-10-15T13:32:31.999Z,10.03
2017-10-15T13:34:58.782Z,10.53
2017-10-15T13:37:25.578Z,10.00
2017-10-15T13:39:52.735Z,10.17
2017-10-15T13:42:19.513Z,8.67
2017-10-15T13:44:46.618Z,9.50
2017-10-15T13:47:13.775Z,8.30
2017-10-15T13:49:41.314Z,8.57
2017-10-15T13:52:08.685Z,9.27
2017-10-15T13:54:36.232Z,10.60
2017-10-15T13:57:03.284Z,9.43
2017-10-15T13:59:30.604Z,8.50
2017-10-15T14:01:57.859Z,7.43
2017-10-15T14:04:25.108Z,8.10
2017-10-15T14:06:52.312Z,7.87
2017-10-15T14:09:19.671Z,6.60
2017-10-15T14:11:46.910Z,7.10
2017-10-15T14:14:13.963Z,6.30
2017-10-15T14:16:40.774Z,6.40
2017-10-15T14:19:07.591Z,6.67
2017-10-15T14:21:34.403Z,6.20
2017-10-15T14:24:01.542Z,6.27
2017-10-15T14:26:28.691Z,6.43
2017-10-15T14:28:55.465Z,6.40
2017-10-15T14:31:22.274Z,6.30
2017-10-15T14:33:49.092Z,5.50
2017-10-15T14:36:16.478Z,6.00
2017-10-15T14:38:43.932Z,6.93
2017-10-15T14:41:11.811Z,5.80
2017-10-15T14:43:38.951Z,5.50
2017-10-15T14:46:06.104Z,6.63
2017-10-15T14:48:32.875Z,7.10
2017-10-15T14:50:59.981Z,6.47
2017-10-15T14:53:26.785Z,7.23
2017-10-15T14:55:53.877Z,7.17
2017-10-15T14:58:20.650Z,6.40
2017-10-15T15:00:47.772Z,7.10
2017-10-15T15:03:14.819Z,7.40
2017-10-15T15:05:41.868Z,6.50
2017-10-15T15:08:08.706Z,8.30
2017-10-15T15:10:35.736Z,8.53
2017-10-15T15:13:02.815Z,9.90
2017-10-15T15:15:29.605Z,8.97
2017-10-15T15:17:56.455Z,9.63
2017-10-15T15:20:23.238Z,9.20
2017-10-15T15:22:50.074Z,11.20
2017-10-15T15:25:17.227Z,10.20
2017-10-15T15:27:44.046Z,7.97
2017-10-15T15:30:10.850Z,8.63
2017-10-15T15:32:37.630Z,9.90
2017-10-15T15:35:04.710Z,11.60
2017-10-15T15:37:31.554Z,11.53
2017-10-15T15:39:58.371Z,12.00
2017-10-15T15:42:25.154Z,10.80
2017-10-15T15:44:52.266Z,12.60
2017-10-15T15:47:19.106Z,12.97
2017-10-15T15:49:45.915Z,10.87
2017-10-15T15:52:12.765Z,11.90
2017-10-15T15:54:39.542Z,10.00
2017-10-15T15:57:06.355Z,9.90
2017-10-15T15:59:33.188Z,9.90
2017-10-15T16:01:59.974Z,10.87
2017-10-15T16:04:26.793Z,10.63
2017-10-15T16:06:53.945Z,11.37
2017-10-15T16:09:20.987Z,11.37
2017-10-15T16:11:47.796Z,11.20
2017-10-15T16:14:14.606Z,10.67
2017-10-15T16:16:41.399Z,11.60
2017-10-15T16:19:08.194Z,11.63
2017-10-15T16:21:35.007Z,12.83
2017-10-15T16:24:01.798Z,11.00
2017-10-15T16:26:28.918Z,12.40
2017-10-15T16:28:55.970Z,12.77
2017-10-15T16:31:22.759Z,11.87
2017-10-15T16:33:49.549Z,12.20
2017-10-15T16:36:16.400Z,12.97
2017-10-15T16:38:43.186Z,12.00
2017-10-15T16:41:10.016Z,11.73
2017-10-15T16:43:36.826Z,11.13
2017-10-15T16:46:03.975Z,12.50
2017-10-15T16:48:30.795Z,12.50
2017-10-15T16:50:57.605Z,12.27
2017-10-15T16:53:24.393Z,13.73
2017-10-15T16:55:51.178Z,11.90
2017-10-15T16:58:18.023Z,11.70
2017-10-15T17:00:44.809Z,13.30
2017-10-15T17:03:11.617Z,12.60
2017-10-15T17:05:38.463Z,11.90
2017-10-15T17:08:05.292Z,13.07
2017-10-15T17:10:32.331Z,12.80
2017-10-15T17:12:59.174Z,11.90
2017-10-15T17:15:25.996Z,12.57
2017-10-15T17:17:53.040Z,12.80
2017-10-15T17:20:19.845Z,13.90
2017-10-15T17:22:46.660Z,13.10
2017-10-15T17:25:13.771Z,39.80
2017-10-15T17:27:40.583Z,18.50
2017-10-15T17:30:07.366Z,14.37
2017-10-15T17:32:34.215Z,15.63
2017-10-15T17:35:01.059Z,13.90
2017-10-15T17:37:28.203Z,12.67
2017-10-15T17:39:54.979Z,12.83
2017-10-15T17:42:22.288Z,13.00
2017-10-15T17:44:49.635Z,12.70
2017-10-15T17:47:16.963Z,14.00
2017-10-15T17:49:45.591Z,11.40
2017-10-15T17:52:13.335Z,11.63
2017-10-15T17:54:40.704Z,13.17
2017-10-15T17:57:08.070Z,13.10
2017-10-15T17:59:35.411Z,11.90
2017-10-15T18:02:08.603Z,12.90
2017-10-15T18:04:35.645Z,12.00
2017-10-15T18:07:02.472Z,11.87
2017-10-15T18:09:29.288Z,11.03
2017-10-15T18:11:56.387Z,10.83
2017-10-15T18:14:23.539Z,31.10
2017-10-15T18:16:50.582Z,14.27
2017-10-15T18:19:17.415Z,10.37
2017-10-15T18:21:44.206Z,9.80
2017-10-15T18:24:11.081Z,9.83
2017-10-15T18:26:38.157Z,9.50
2017-10-15T18:29:04.938Z,9.67
2017-10-15T18:31:31.779Z,9.33
2017-10-15T18:33:58.562Z,9.33
2017-10-15T18:36:25.418Z,9.80
2017-10-15T18:38:52.587Z,9.33
2017-10-15T18:41:19.530Z,9.77
2017-10-15T18:43:46.589Z,8.40
2017-10-15T18:46:13.411Z,8.00
2017-10-15T18:48:40.466Z,9.37
2017-10-15T18:51:07.253Z,9.07
2017-10-15T18:53:34.073Z,9.23
2017-10-15T18:56:00.900Z,11.17
2017-10-15T18:58:27.714Z,9.23
2017-10-15T19:00:54.542Z,10.00
2017-10-15T19:03:21.345Z,10.40
2017-10-15T19:05:48.203Z,9.20
2017-10-15T19:08:15.311Z,9.83
2017-10-15T19:10:42.103Z,10.23
2017-10-15T19:13:08.891Z,9.20
2017-10-15T19:15:35.706Z,9.00
2017-10-15T19:18:02.498Z,12.77
2017-10-15T19:20:29.526Z,59.67
2017-10-15T19:22:56.391Z,13.53
2017-10-15T19:25:23.215Z,9.47
2017-10-15T19:27:50.052Z,9.40
2017-10-15T19:30:17.223Z,9.47
2017-10-15T19:32:44.359Z,9.73
2017-10-15T19:35:11.181Z,10.53
2017-10-15T19:37:38.001Z,9.00
2017-10-15T19:40:04.819Z,8.33
2017-10-15T19:42:31.623Z,9.93
2017-10-15T19:44:58.439Z,8.80
2017-10-15T19:47:25.521Z,9.60
2017-10-15T19:49:52.341Z,8.87
2017-10-15T19:52:19.222Z,9.97
2017-10-15T19:54:46.258Z,10.90
2017-10-15T19:57:13.524Z,10.30
2017-10-15T19:59:40.334Z,10.17
2017-10-15T20:02:07.203Z,9.50
2017-10-15T20:04:34.492Z,10.17
2017-10-15T20:07:01.294Z,9.67
2017-10-15T20:09:28.160Z,9.10
2017-10-15T20:11:55.278Z,8.93
2017-10-15T20:14:22.135Z,9.03
2017-10-15T20:16:48.973Z,9.13
2017-10-15T20:19:16.116Z,9.30
2017-10-15T20:21:43.272Z,9.93
2017-10-15T20:24:10.419Z,9.63
2017-10-15T20:26:37.227Z,9.00
2017-10-15T20:29:04.307Z,9.07
2017-10-15T20:31:31.462Z,8.73
2017-10-15T20:33:58.308Z,8.53
2017-10-15T20:36:25.127Z,8.53
2017-10-15T20:38:52.191Z,9.73
2017-10-15T20:41:19.051Z,9.10
2017-10-15T20:43:45.864Z,9.27
2017-10-15T20:46:12.661Z,8.53
2017-10-15T20:48:39.773Z,9.80
2017-10-15T20:51:06.615Z,8.67
2017-10-15T20:53:33.658Z,9.83
2017-10-15T20:56:00.477Z,9.53
2017-10-15T20:58:27.314Z,10.27
2017-10-15T21:00:54.126Z,9.27
2017-10-15T21:03:20.901Z,8.80
2017-10-15T21:05:47.984Z,9.47
2017-10-15T21:08:15.131Z,9.23
2017-10-15T21:10:42.175Z,8.10
2017-10-15T21:13:08.973Z,7.70
2017-10-15T21:15:36.067Z,7.57
2017-10-15T21:18:03.223Z,8.00
2017-10-15T21:20:30.270Z,8.33
2017-10-15T21:22:57.315Z,8.43
2017-10-15T21:25:24.126Z,7.40
2017-10-15T21:27:50.929Z,7.77
2017-10-15T21:30:17.709Z,8.33
2017-10-15T21:32:44.786Z,8.03
2017-10-15T21:35:11.835Z,8.10
2017-10-15T21:37:38.638Z,7.13
2017-10-15T21:40:05.428Z,8.10
2017-10-15T21:42:32.571Z,6.90
2017-10-15T21:44:59.390Z,7.60
2017-10-15T21:47:26.167Z,7.63
2017-10-15T21:49:52.979Z,7.30
2017-10-15T21:52:20.146Z,7.13
2017-10-15T21:54:47.199Z,7.90
2017-10-15T21:57:14.354Z,7.50
2017-10-15T21:59:41.125Z,7.53
2017-10-15T22:02:07.960Z,7.47
2017-10-15T22:04:35.082Z,7.00
2017-10-15T22:07:01.903Z,6.90
2017-10-15T22:09:28.692Z,7.43
2017-10-15T22:11:55.562Z,6.80
2017-10-15T22:14:22.334Z,7.13
2017-10-15T22:16:49.398Z,7.33
2017-10-15T22:19:16.251Z,6.77
2017-10-15T22:21:43.065Z,7.83
2017-10-15T22:24:09.879Z,7.07
2017-10-15T22:26:36.974Z,7.47
2017-10-15T22:29:03.787Z,8.60
2017-10-15T22:31:30.566Z,7.80
2017-10-15T22:33:57.379Z,7.50
2017-10-15T22:36:24.155Z,7.20
2017-10-15T22:38:51.165Z,7.27
2017-10-15T22:41:17.980Z,7.40
2017-10-15T22:43:44.800Z,7.23
2017-10-15T22:46:11.934Z,7.20
2017-10-15T22:48:39.076Z,8.73
2017-10-15T22:51:06.143Z,7.00
2017-10-15T22:53:32.941Z,7.03
2017-10-15T22:56:00.010Z,7.07
2017-10-15T22:58:26.794Z,7.33
2017-10-15T23:00:53.582Z,7.67
2017-10-15T23:03:20.451Z,7.70
2017-10-15T23:05:47.504Z,7.60
2017-10-15T23:08:14.537Z,7.60
2017-10-15T23:10:41.383Z,7.90
2017-10-15T23:13:08.239Z,8.30
2017-10-15T23:15:35.269Z,6.73
2017-10-15T23:18:02.319Z,7.50
2017-10-15T23:20:29.367Z,7.50
2017-10-15T23:22:56.420Z,7.27
2017-10-15T23:25:23.571Z,7.63
2017-10-15T23:27:50.619Z,8.00
2017-10-15T23:30:17.771Z,7.60
2017-10-15T23:32:44.915Z,7.40
2017-10-15T23:35:11.733Z,7.60
2017-10-15T23:37:38.812Z,8.17
2017-10-15T23:40:05.643Z,7.60
2017-10-15T23:42:32.423Z,7.53
2017-10-15T23:44:59.206Z,7.87
2017-10-15T23:47:26.018Z,7.97
2017-10-15T23:49:53.122Z,8.27
2017-10-15T23:52:19.940Z,8.60
2017-10-15T23:54:47.018Z,9.00
2017-10-15T23:57:14.062Z,8.73
2017-10-15T23:59:40.888Z,8.20
